Time;durP1;ratioP1;P1;durP2;ratioP2;P2;SDS_P1;SDS_P2;PMS_P1;PMS_P2;Temp;Humidity;BMP_temperature;BMP_pressure;BME280_temperature;BME280_humidity;BME280_pressure;Samples;Min_cycle;Max_cycle;Signal;HPM_P1;HPM_P2
2024/01/09 00:01:27;;;;;;;;;;;;;;;;;;2206746;59;2596;-19
2024/01/09 00:03:57;;;;;;;;;;;;;;;;;;2207782;59;2554;-17
2024/01/09 00:06:28;;;;;;;;;;;;;;;;;;2206326;59;2394;-17
2024/01/09 00:08:58;;;;;;;;;;;;;;;;;;2207017;67;1698;-19
2024/01/09 00:11:29;;;;;;;;;;;;;;;;;;2206247;67;2819;-17
2024/01/09 00:13:59;;;;;;;;;;;;;;;;;;2206963;59;1792;-17
2024/01/09 00:16:30;;;;;;;;;;;;;;;;;;2202643;59;1788;-17
2024/01/09 00:19:01;;;;;;;;;;;;;;;;;;2206308;59;2004;-17
2024/01/09 00:21:32;;;;;;;;;;;;;;;;;;2204043;59;1794;-17
2024/01/09 00:24:04;;;;;;;;;;;;;;;;;;2201899;59;1967;-18
2024/01/09 00:26:44;;;;;;;;;;;;;;;;;;2200272;59;2077;-17
2024/01/09 00:29:14;;;;;;;;;;;;;;;;;;2205353;59;2234;-17
2024/01/09 00:31:45;;;;;;;;;;;;;;;;;;2206642;59;1973;-19
2024/01/09 00:34:15;;;;;;;;;;;;;;;;;;2206949;59;2194;-17
2024/01/09 00:36:46;;;;;;;;;;;;;;;;;;2206558;59;1991;-17
2024/01/09 00:39:17;;;;;;;;;;;;;;;;;;2207436;67;1746;-19
2024/01/09 00:41:47;;;;;;;;;;;;;;;;;;2206212;67;2041;-17
2024/01/09 00:44:18;;;;;;;;;;;;;;;;;;2207718;67;1784;-19
2024/01/09 00:46:48;;;;;;;;;;;;;;;;;;2206646;59;1794;-17
2024/01/09 00:49:19;;;;;;;;;;;;;;;;;;2207659;67;2061;-19
2024/01/09 00:51:49;;;;;;;;;;;;;;;;;;2206662;59;1759;-19
2024/01/09 00:54:19;;;;;;;;;;;;;;;;;;2207470;67;1908;-18
2024/01/09 00:56:49;;;;;;;;;;;;;;;;;;2206734;67;1827;-19
2024/01/09 00:59:20;;;;;;;;;;;;;;;;;;2206468;67;2793;-17
2024/01/09 01:01:50;;;;;;;;;;;;;;;;;;2206710;59;2130;-19
2024/01/09 01:04:21;;;;;;;;;;;;;;;;;;2207474;59;2574;-19
2024/01/09 01:06:51;;;;;;;;;;;;;;;;;;2206579;59;2304;-17
2024/01/09 01:09:22;;;;;;;;;;;;;;;;;;2207383;59;1817;-19
2024/01/09 01:11:52;;;;;;;;;;;;;;;;;;2206594;59;1841;-17
2024/01/09 01:14:23;;;;;;;;;;;;;;;;;;2207492;59;1944;-19
2024/01/09 01:16:54;;;;;;;;;;;;;;;;;;2205636;67;2664;-17
2024/01/09 01:19:24;;;;;;;;;;;;;;;;;;2205903;67;2027;-19
2024/01/09 01:21:55;;;;;;;;;;;;;;;;;;2206879;59;1935;-19
2024/01/09 01:24:25;;;;;;;;;;;;;;;;;;2207674;59;2553;-19
2024/01/09 01:26:55;;;;;;;;;;;;;;;;;;2207125;67;1854;-19
2024/01/09 01:29:26;;;;;;;;;;;;;;;;;;2207565;59;2020;-19
2024/01/09 01:31:56;;;;;;;;;;;;;;;;;;2206005;67;2357;-17
2024/01/09 01:34:27;;;;;;;;;;;;;;;;;;2207077;59;2442;-17
2024/01/09 01:36:57;;;;;;;;;;;;;;;;;;2207686;67;2352;-17
2024/01/09 01:39:28;;;;;;;;;;;;;;;;;;2207918;59;1797;-17
2024/01/09 01:41:59;;;;;;;;;;;;;;;;;;2207086;59;2579;-17
2024/01/09 01:44:29;;;;;;;;;;;;;;;;;;2207246;67;1876;-17
2024/01/09 01:47:00;;;;;;;;;;;;;;;;;;2206674;59;2293;-17
2024/01/09 01:49:30;;;;;;;;;;;;;;;;;;2206570;67;2214;-17
2024/01/09 01:52:02;;;;;;;;;;;;;;;;;;2205275;59;2513;-17
2024/01/09 01:54:34;;;;;;;;;;;;;;;;;;2200393;59;1698;-17
2024/01/09 01:57:06;;;;;;;;;;;;;;;;;;2201808;59;2049;-19
2024/01/09 01:59:40;;;;;;;;;;;;;;;;;;2202802;59;1936;-19
2024/01/09 02:02:12;;;;;;;;;;;;;;;;;;2207888;59;2016;-19
2024/01/09 02:04:43;;;;;;;;;;;;;;;;;;2206066;67;3515;-19
2024/01/09 02:07:13;;;;;;;;;;;;;;;;;;2204033;59;2115;-19
2024/01/09 02:09:44;;;;;;;;;;;;;;;;;;2206452;59;3339;-19
2024/01/09 02:12:14;;;;;;;;;;;;;;;;;;2207674;67;1889;-19
2024/01/09 02:14:44;;;;;;;;;;;;;;;;;;2207462;59;2532;-19
2024/01/09 02:17:15;;;;;;;;;;;;;;;;;;2208308;67;2089;-17
2024/01/09 02:19:45;;;;;;;;;;;;;;;;;;2206198;67;2495;-19
2024/01/09 02:22:15;;;;;;;;;;;;;;;;;;2207978;59;2020;-17
2024/01/09 02:24:46;;;;;;;;;;;;;;;;;;2207122;59;2599;-19
2024/01/09 02:27:35;;;;;;;;;;;;;;;;;;2206517;59;1701;-19
2024/01/09 02:30:06;;;;;;;;;;;;;;;;;;2208307;59;1847;-17
2024/01/09 02:32:36;;;;;;;;;;;;;;;;;;2206909;59;2098;-19
2024/01/09 02:35:07;;;;;;;;;;;;;;;;;;2208147;67;1932;-19
2024/01/09 02:37:37;;;;;;;;;;;;;;;;;;2207234;59;1908;-17
2024/01/09 02:40:08;;;;;;;;;;;;;;;;;;2208068;59;2118;-17
2024/01/09 02:42:38;;;;;;;;;;;;;;;;;;2207461;67;1987;-17
2024/01/09 02:45:10;;;;;;;;;;;;;;;;;;2208843;67;1839;-19
2024/01/09 02:47:40;;;;;;;;;;;;;;;;;;2207681;67;2122;-19
2024/01/09 02:50:11;;;;;;;;;;;;;;;;;;2207848;59;2636;-17
2024/01/09 02:52:42;;;;;;;;;;;;;;;;;;2202716;59;2608;-18
2024/01/09 02:55:12;;;;;;;;;;;;;;;;;;2206989;67;1769;-19
2024/01/09 02:57:43;;;;;;;;;;;;;;;;;;2204031;59;1733;-17
2024/01/09 03:00:13;;;;;;;;;;;;;;;;;;2207278;59;1846;-19
2024/01/09 03:02:43;;;;;;;;;;;;;;;;;;2206205;59;2119;-19
2024/01/09 03:05:14;;;;;;;;;;;;;;;;;;2208285;59;2153;-17
2024/01/09 03:07:44;;;;;;;;;;;;;;;;;;2207256;59;2003;-17
2024/01/09 03:10:15;;;;;;;;;;;;;;;;;;2208442;59;1767;-19
2024/01/09 03:12:45;;;;;;;;;;;;;;;;;;2206812;67;1823;-17
2024/01/09 03:15:15;;;;;;;;;;;;;;;;;;2208546;59;1828;-19
2024/01/09 03:17:45;;;;;;;;;;;;;;;;;;2206467;67;2309;-19
2024/01/09 03:20:16;;;;;;;;;;;;;;;;;;2207758;67;1962;-17
2024/01/09 03:22:46;;;;;;;;;;;;;;;;;;2206044;67;2741;-19
2024/01/09 03:25:16;;;;;;;;;;;;;;;;;;2208404;67;1140;-19
2024/01/09 03:27:47;;;;;;;;;;;;;;;;;;2207255;67;3027;-19
2024/01/09 03:30:17;;;;;;;;;;;;;;;;;;2208382;67;1818;-17
2024/01/09 03:32:47;;;;;;;;;;;;;;;;;;2204232;59;2126;-19
2024/01/09 03:35:18;;;;;;;;;;;;;;;;;;2208767;67;1993;-17
2024/01/09 03:37:48;;;;;;;;;;;;;;;;;;2207675;59;3496;-19
2024/01/09 03:40:18;;;;;;;;;;;;;;;;;;2207234;67;2255;-17
2024/01/09 03:42:49;;;;;;;;;;;;;;;;;;2207654;67;1936;-19
2024/01/09 03:45:19;;;;;;;;;;;;;;;;;;2208396;59;2485;-17
2024/01/09 03:47:49;;;;;;;;;;;;;;;;;;2207547;67;1827;-17
2024/01/09 03:50:20;;;;;;;;;;;;;;;;;;2207610;59;2495;-19
2024/01/09 03:52:50;;;;;;;;;;;;;;;;;;2207392;67;2377;-17
2024/01/09 03:55:21;;;;;;;;;;;;;;;;;;2208792;59;2598;-19
2024/01/09 03:57:51;;;;;;;;;;;;;;;;;;2207274;59;1917;-19
2024/01/09 04:00:22;;;;;;;;;;;;;;;;;;2208827;59;1702;-17
2024/01/09 04:02:52;;;;;;;;;;;;;;;;;;2206983;59;2518;-19
2024/01/09 04:05:22;;;;;;;;;;;;;;;;;;2208549;59;2529;-17
2024/01/09 04:07:53;;;;;;;;;;;;;;;;;;2207267;59;1867;-17
2024/01/09 04:10:23;;;;;;;;;;;;;;;;;;2207872;59;2067;-17
2024/01/09 04:12:53;;;;;;;;;;;;;;;;;;2207773;67;2005;-17
2024/01/09 04:15:24;;;;;;;;;;;;;;;;;;2207236;59;1978;-17
2024/01/09 04:17:54;;;;;;;;;;;;;;;;;;2206256;67;2403;-19
2024/01/09 04:20:24;;;;;;;;;;;;;;;;;;2207923;59;1950;-19
2024/01/09 04:22:55;;;;;;;;;;;;;;;;;;2207077;59;2432;-17
2024/01/09 04:25:25;;;;;;;;;;;;;;;;;;2208698;59;2631;-17
2024/01/09 04:27:55;;;;;;;;;;;;;;;;;;2207730;67;1866;-19
2024/01/09 04:30:26;;;;;;;;;;;;;;;;;;2208315;67;2280;-19
2024/01/09 04:32:56;;;;;;;;;;;;;;;;;;2206545;59;2643;-17
2024/01/09 04:35:27;;;;;;;;;;;;;;;;;;2208432;67;1754;-19
2024/01/09 04:37:57;;;;;;;;;;;;;;;;;;2204676;59;1909;-17
2024/01/09 04:40:28;;;;;;;;;;;;;;;;;;2207612;67;2495;-17
2024/01/09 04:42:58;;;;;;;;;;;;;;;;;;2207154;67;3073;-19
2024/01/09 04:45:28;;;;;;;;;;;;;;;;;;2207704;59;2384;-17
2024/01/09 04:47:59;;;;;;;;;;;;;;;;;;2206833;67;2338;-17
2024/01/09 04:50:29;;;;;;;;;;;;;;;;;;2208869;67;1840;-19
2024/01/09 04:52:59;;;;;;;;;;;;;;;;;;2207006;67;1752;-19
2024/01/09 04:55:29;;;;;;;;;;;;;;;;;;2207291;67;1988;-19
2024/01/09 04:58:00;;;;;;;;;;;;;;;;;;2207030;59;2192;-17
2024/01/09 05:00:30;;;;;;;;;;;;;;;;;;2208668;59;1766;-19
2024/01/09 05:03:01;;;;;;;;;;;;;;;;;;2206836;59;2138;-19
2024/01/09 05:05:31;;;;;;;;;;;;;;;;;;2208675;59;1956;-17
2024/01/09 05:08:01;;;;;;;;;;;;;;;;;;2206931;59;1877;-17
2024/01/09 05:10:32;;;;;;;;;;;;;;;;;;2208150;59;2676;-17
2024/01/09 05:13:04;;;;;;;;;;;;;;;;;;2207881;59;1888;-19
2024/01/09 05:15:35;;;;;;;;;;;;;;;;;;2208224;59;1686;-19
2024/01/09 05:18:06;;;;;;;;;;;;;;;;;;2207430;59;1781;-19
2024/01/09 05:20:36;;;;;;;;;;;;;;;;;;2207490;59;1774;-19
2024/01/09 05:23:06;;;;;;;;;;;;;;;;;;2206550;67;2033;-19
2024/01/09 05:25:38;;;;;;;;;;;;;;;;;;2204056;67;2261;-19
2024/01/09 05:28:08;;;;;;;;;;;;;;;;;;2206594;67;3374;-17
2024/01/09 05:30:40;;;;;;;;;;;;;;;;;;2207354;59;3163;-17
2024/01/09 05:33:11;;;;;;;;;;;;;;;;;;2207023;59;2423;-19
2024/01/09 05:35:41;;;;;;;;;;;;;;;;;;2207041;67;1839;-17
2024/01/09 05:38:12;;;;;;;;;;;;;;;;;;2206933;59;3151;-17
2024/01/09 05:40:42;;;;;;;;;;;;;;;;;;2207128;67;1966;-19
2024/01/09 05:43:12;;;;;;;;;;;;;;;;;;2207020;67;2180;-17
2024/01/09 05:45:43;;;;;;;;;;;;;;;;;;2208060;67;2405;-18
2024/01/09 05:48:13;;;;;;;;;;;;;;;;;;2206532;67;1681;-17
2024/01/09 05:50:44;;;;;;;;;;;;;;;;;;2206725;67;2244;-19
2024/01/09 05:53:15;;;;;;;;;;;;;;;;;;2206303;59;2518;-19
2024/01/09 05:55:45;;;;;;;;;;;;;;;;;;2206261;59;1761;-19
2024/01/09 05:58:15;;;;;;;;;;;;;;;;;;2207600;67;2433;-19
2024/01/09 06:00:47;;;;;;;;;;;;;;;;;;2207213;59;2715;-19
2024/01/09 06:03:18;;;;;;;;;;;;;;;;;;2205932;59;2036;-19
2024/01/09 06:05:49;;;;;;;;;;;;;;;;;;2207350;59;1846;-17
2024/01/09 06:08:20;;;;;;;;;;;;;;;;;;2206989;59;2567;-17
2024/01/09 06:10:50;;;;;;;;;;;;;;;;;;2206355;67;2406;-17
2024/01/09 06:13:20;;;;;;;;;;;;;;;;;;2207035;59;1894;-17
2024/01/09 06:15:51;;;;;;;;;;;;;;;;;;2206126;59;1600;-19
2024/01/09 06:18:21;;;;;;;;;;;;;;;;;;2206541;59;2158;-17
2024/01/09 06:20:51;;;;;;;;;;;;;;;;;;2207020;59;2598;-17
2024/01/09 06:23:22;;;;;;;;;;;;;;;;;;2206511;67;1999;-17
2024/01/09 06:25:52;;;;;;;;;;;;;;;;;;2205898;67;2352;-17
2024/01/09 06:28:23;;;;;;;;;;;;;;;;;;2207191;59;2680;-19
2024/01/09 06:30:53;;;;;;;;;;;;;;;;;;2206181;67;1955;-17
2024/01/09 06:33:25;;;;;;;;;;;;;;;;;;2207388;59;2157;-17
2024/01/09 06:35:55;;;;;;;;;;;;;;;;;;2205560;67;2074;-19
2024/01/09 06:38:26;;;;;;;;;;;;;;;;;;2207816;59;2312;-19
2024/01/09 06:40:57;;;;;;;;;;;;;;;;;;2205996;53;2882;-16
2024/01/09 06:43:28;;;;;;;;;;;;;;;;;;2206692;59;2541;-19
2024/01/09 06:45:58;;;;;;;;;;;;;;;;;;2206758;59;2594;-17
2024/01/09 06:48:28;;;;;;;;;;;;;;;;;;2207871;59;1798;-17
2024/01/09 06:50:59;;;;;;;;;;;;;;;;;;2203220;59;2306;-17
2024/01/09 06:53:30;;;;;;;;;;;;;;;;;;2204116;67;2127;-19
2024/01/09 06:56:00;;;;;;;;;;;;;;;;;;2203369;59;1795;-19
2024/01/09 06:58:30;;;;;;;;;;;;;;;;;;2203620;59;2214;-19
2024/01/09 07:01:01;;;;;;;;;;;;;;;;;;2203170;59;1847;-17
2024/01/09 07:03:31;;;;;;;;;;;;;;;;;;2202644;59;2130;-19
2024/01/09 07:06:02;;;;;;;;;;;;;;;;;;2204734;59;2159;-17
2024/01/09 07:08:32;;;;;;;;;;;;;;;;;;2203980;59;2805;-19
2024/01/09 07:11:03;;;;;;;;;;;;;;;;;;2202913;59;1818;-19
2024/01/09 07:13:33;;;;;;;;;;;;;;;;;;2204747;59;1903;-19
2024/01/09 07:16:03;;;;;;;;;;;;;;;;;;2203725;67;2029;-19
2024/01/09 07:18:34;;;;;;;;;;;;;;;;;;2204594;67;2124;-19
2024/01/09 07:21:04;;;;;;;;;;;;;;;;;;2205684;59;2244;-19
2024/01/09 07:23:35;;;;;;;;;;;;;;;;;;2204308;67;1937;-17
2024/01/09 07:26:05;;;;;;;;;;;;;;;;;;2203484;67;2486;-19
2024/01/09 07:28:36;;;;;;;;;;;;;;;;;;2204219;59;2743;-17
2024/01/09 07:31:09;;;;;;;;;;;;;;;;;;2204087;59;2006;-17
2024/01/09 07:33:40;;;;;;;;;;;;;;;;;;2204528;59;2632;-17
2024/01/09 07:36:11;;;;;;;;;;;;;;;;;;2201243;59;2132;-18
2024/01/09 07:38:42;;;;;;;;;;;;;;;;;;2204923;59;1864;-19
2024/01/09 07:41:13;;;;;;;;;;;;;;;;;;2202771;59;1753;-19
2024/01/09 07:43:43;;;;;;;;;;;;;;;;;;2204926;59;2234;-17
2024/01/09 07:46:15;;;;;;;;;;;;;;;;;;2203373;59;1797;-19
2024/01/09 07:48:45;;;;;;;;;;;;;;;;;;2204077;67;1906;-17
2024/01/09 07:51:16;;;;;;;;;;;;;;;;;;2203422;59;2120;-19
2024/01/09 07:53:46;;;;;;;;;;;;;;;;;;2204341;59;2235;-19
2024/01/09 07:56:17;;;;;;;;;;;;;;;;;;2203560;59;1813;-19
2024/01/09 07:58:47;;;;;;;;;;;;;;;;;;2204454;59;3063;-19
2024/01/09 08:01:18;;;;;;;;;;;;;;;;;;2202993;59;2095;-17
2024/01/09 08:03:49;;;;;;;;;;;;;;;;;;2203793;59;1950;-19
2024/01/09 08:06:19;;;;;;;;;;;;;;;;;;2203497;59;1962;-17
2024/01/09 08:08:49;;;;;;;;;;;;;;;;;;2202992;59;2479;-19
2024/01/09 08:11:20;;;;;;;;;;;;;;;;;;2204095;59;1890;-18
2024/01/09 08:13:50;;;;;;;;;;;;;;;;;;2203782;59;2270;-17
2024/01/09 08:16:20;;;;;;;;;;;;;;;;;;2201227;59;2097;-19
2024/01/09 08:18:51;;;;;;;;;;;;;;;;;;2203608;59;1645;-17
2024/01/09 08:21:21;;;;;;;;;;;;;;;;;;2203363;59;2011;-19
2024/01/09 08:23:52;;;;;;;;;;;;;;;;;;2203513;59;1943;-19
2024/01/09 08:26:22;;;;;;;;;;;;;;;;;;2201697;59;2641;-19
2024/01/09 08:28:52;;;;;;;;;;;;;;;;;;2203506;59;3199;-19
2024/01/09 08:31:23;;;;;;;;;;;;;;;;;;2202874;59;2172;-19
2024/01/09 08:33:53;;;;;;;;;;;;;;;;;;2203065;59;2443;-19
2024/01/09 08:36:23;;;;;;;;;;;;;;;;;;2203576;67;1806;-19
2024/01/09 08:38:54;;;;;;;;;;;;;;;;;;2204345;59;1926;-17
2024/01/09 08:41:24;;;;;;;;;;;;;;;;;;2203643;59;1824;-17
2024/01/09 08:43:55;;;;;;;;;;;;;;;;;;2204173;59;2064;-17
2024/01/09 08:46:25;;;;;;;;;;;;;;;;;;2202287;59;2220;-19
2024/01/09 08:48:55;;;;;;;;;;;;;;;;;;2202871;59;2282;-19
2024/01/09 08:51:27;;;;;;;;;;;;;;;;;;2202491;59;2234;-19
2024/01/09 08:53:57;;;;;;;;;;;;;;;;;;2203089;59;2398;-19
2024/01/09 08:56:27;;;;;;;;;;;;;;;;;;2196004;59;4120;-19
2024/01/09 08:58:58;;;;;;;;;;;;;;;;;;2201864;59;3282;-19
2024/01/09 09:01:30;;;;;;;;;;;;;;;;;;2200953;59;2932;-19
2024/01/09 09:04:01;;;;;;;;;;;;;;;;;;2203148;59;1939;-20
2024/01/09 09:06:32;;;;;;;;;;;;;;;;;;2204499;59;1894;-17
2024/01/09 09:09:03;;;;;;;;;;;;;;;;;;2202333;59;1905;-20
2024/01/09 09:11:33;;;;;;;;;;;;;;;;;;2203807;59;1974;-19
2024/01/09 09:14:04;;;;;;;;;;;;;;;;;;2201996;59;2412;-19
2024/01/09 09:16:35;;;;;;;;;;;;;;;;;;2203180;59;2357;-17
2024/01/09 09:19:06;;;;;;;;;;;;;;;;;;2200868;59;2914;-17
2024/01/09 09:21:36;;;;;;;;;;;;;;;;;;2203106;59;2279;-19
2024/01/09 09:24:06;;;;;;;;;;;;;;;;;;2198246;59;2852;-17
2024/01/09 09:26:37;;;;;;;;;;;;;;;;;;2204691;59;2111;-17
2024/01/09 09:29:07;;;;;;;;;;;;;;;;;;2201438;59;2735;-17
2024/01/09 09:31:38;;;;;;;;;;;;;;;;;;2202944;59;1695;-19
2024/01/09 09:34:08;;;;;;;;;;;;;;;;;;2202487;59;3271;-16
2024/01/09 09:36:39;;;;;;;;;;;;;;;;;;2204750;59;2186;-19
2024/01/09 09:39:10;;;;;;;;;;;;;;;;;;2204402;59;1994;-17
2024/01/09 09:41:43;;;;;;;;;;;;;;;;;;2204636;59;1706;-17
2024/01/09 09:44:14;;;;;;;;;;;;;;;;;;2203095;59;2130;-17
2024/01/09 09:46:45;;;;;;;;;;;;;;;;;;2204935;59;2169;-17
2024/01/09 09:49:16;;;;;;;;;;;;;;;;;;2204377;59;2546;-19
2024/01/09 09:51:46;;;;;;;;;;;;;;;;;;2204327;59;1943;-17
2024/01/09 09:54:16;;;;;;;;;;;;;;;;;;2203358;59;2317;-17
2024/01/09 09:56:47;;;;;;;;;;;;;;;;;;2200448;59;1768;-19
2024/01/09 09:59:17;;;;;;;;;;;;;;;;;;2202626;59;1873;-19
2024/01/09 10:01:48;;;;;;;;;;;;;;;;;;2204619;59;3340;-17
2024/01/09 10:04:24;;;;;;;;;;;;;;;;;;2187369;59;2880;-19
2024/01/09 10:06:56;;;;;;;;;;;;;;;;;;2196633;59;2394;-17
2024/01/09 10:09:42;;;;;;;;;;;;;;;;;;2193999;59;2314;-19
2024/01/09 10:12:12;;;;;;;;;;;;;;;;;;2197414;59;2280;-17
2024/01/09 10:15:01;;;;;;;;;;;;;;;;;;2202965;59;2792;-17
2024/01/09 10:17:32;;;;;;;;;;;;;;;;;;2196865;59;2405;-17
2024/01/09 10:20:04;;;;;;;;;;;;;;;;;;2192940;59;2662;-19
2024/01/09 10:22:35;;;;;;;;;;;;;;;;;;2193693;59;2807;-17
2024/01/09 10:25:07;;;;;;;;;;;;;;;;;;2193951;59;3086;-19
2024/01/09 10:27:38;;;;;;;;;;;;;;;;;;2195338;59;2401;-19
2024/01/09 10:30:09;;;;;;;;;;;;;;;;;;2193116;64;2825;-19
2024/01/09 10:32:40;;;;;;;;;;;;;;;;;;2195527;59;2243;-17
2024/01/09 10:35:10;;;;;;;;;;;;;;;;;;2188760;59;2996;-19
2024/01/09 10:37:43;;;;;;;;;;;;;;;;;;2196061;59;2616;-19
2024/01/09 10:40:14;;;;;;;;;;;;;;;;;;2194872;59;2515;-17
2024/01/09 10:42:45;;;;;;;;;;;;;;;;;;2194243;59;2237;-17
2024/01/09 10:45:19;;;;;;;;;;;;;;;;;;2194849;59;2232;-17
2024/01/09 10:47:53;;;;;;;;;;;;;;;;;;2193465;59;2367;-19
2024/01/09 10:50:24;;;;;;;;;;;;;;;;;;2194188;59;2645;-19
2024/01/09 10:52:54;;;;;;;;;;;;;;;;;;2200001;53;3073;-19
2024/01/09 10:55:24;;;;;;;;;;;;;;;;;;2199013;59;2829;-17
2024/01/09 10:57:56;;;;;;;;;;;;;;;;;;2200220;67;2540;-19
2024/01/09 11:00:27;;;;;;;;;;;;;;;;;;2199689;67;3027;-19
2024/01/09 11:02:58;;;;;;;;;;;;;;;;;;2199284;59;2515;-19
2024/01/09 11:05:29;;;;;;;;;;;;;;;;;;2199368;59;2858;-17
2024/01/09 11:08:02;;;;;;;;;;;;;;;;;;2201501;59;2330;-19
2024/01/09 11:10:33;;;;;;;;;;;;;;;;;;2199411;59;2499;-17
2024/01/09 11:13:06;;;;;;;;;;;;;;;;;;2202163;59;2445;-19
2024/01/09 11:15:44;;;;;;;;;;;;;;;;;;2199329;59;2185;-19
2024/01/09 11:18:16;;;;;;;;;;;;;;;;;;2198908;59;2418;-19
2024/01/09 11:20:47;;;;;;;;;;;;;;;;;;2195592;59;2654;-17
2024/01/09 11:23:37;;;;;;;;;;;;;;;;;;2198387;59;3064;-20
2024/01/09 11:26:08;;;;;;;;;;;;;;;;;;2198478;59;3226;-17
2024/01/09 11:28:41;;;;;;;;;;;;;;;;;;2199372;59;3223;-17
2024/01/09 11:31:18;;;;;;;;;;;;;;;;;;2199071;59;3146;-19
2024/01/09 11:33:54;;;;;;;;;;;;;;;;;;2197895;59;2608;-19
2024/01/09 11:36:26;;;;;;;;;;;;;;;;;;2196975;59;3304;-19
2024/01/09 11:38:57;;;;;;;;;;;;;;;;;;2200031;67;2627;-19
2024/01/09 11:41:40;;;;;;;;;;;;;;;;;;2199576;59;2610;-17
2024/01/09 11:44:15;;;;;;;;;;;;;;;;;;2197756;59;3032;-17
2024/01/09 11:46:47;;;;;;;;;;;;;;;;;;2197269;59;2859;-18
2024/01/09 11:49:17;;;;;;;;;;;;;;;;;;2195613;59;3020;-17
2024/01/09 11:51:48;;;;;;;;;;;;;;;;;;2200390;59;2954;-17
2024/01/09 11:54:19;;;;;;;;;;;;;;;;;;2197344;59;2990;-19
2024/01/09 11:56:50;;;;;;;;;;;;;;;;;;2196923;59;2741;-20
2024/01/09 11:59:20;;;;;;;;;;;;;;;;;;2197770;59;2678;-17
2024/01/09 12:01:51;;;;;;;;;;;;;;;;;;2194586;59;3107;-17
2024/01/09 12:04:22;;;;;;;;;;;;;;;;;;2197562;59;2693;-19
2024/01/09 12:06:53;;;;;;;;;;;;;;;;;;2198973;59;3413;-16
2024/01/09 12:09:28;;;;;;;;;;;;;;;;;;2197363;59;3172;-17
2024/01/09 12:11:58;;;;;;;;;;;;;;;;;;2198833;63;2685;-20
2024/01/09 12:14:29;;;;;;;;;;;;;;;;;;2198459;59;2749;-17
2024/01/09 12:16:59;;;;;;;;;;;;;;;;;;2197756;59;2902;-19
2024/01/09 12:19:29;;;;;;;;;;;;;;;;;;2198212;59;2533;-17
2024/01/09 12:22:00;;;;;;;;;;;;;;;;;;2198314;59;2526;-17
2024/01/09 12:24:30;;;;;;;;;;;;;;;;;;2199740;67;2678;-18
2024/01/09 12:27:01;;;;;;;;;;;;;;;;;;2198657;67;2490;-19
2024/01/09 12:29:31;;;;;;;;;;;;;;;;;;2197562;59;2851;-19
2024/01/09 12:32:03;;;;;;;;;;;;;;;;;;2200475;67;2715;-19
2024/01/09 12:34:35;;;;;;;;;;;;;;;;;;2200349;59;2505;-17
2024/01/09 12:37:08;;;;;;;;;;;;;;;;;;2198525;59;2669;-19
2024/01/09 12:39:39;;;;;;;;;;;;;;;;;;2201118;67;2845;-19
2024/01/09 12:42:12;;;;;;;;;;;;;;;;;;2198476;59;2550;-17
2024/01/09 12:44:43;;;;;;;;;;;;;;;;;;2201502;59;2502;-17
2024/01/09 12:47:16;;;;;;;;;;;;;;;;;;2197871;62;2744;-19
2024/01/09 12:49:47;;;;;;;;;;;;;;;;;;2200069;59;2859;-20
2024/01/09 12:52:20;;;;;;;;;;;;;;;;;;2196472;59;3018;-20
2024/01/09 12:54:51;;;;;;;;;;;;;;;;;;2198248;67;2730;-17
2024/01/09 12:57:22;;;;;;;;;;;;;;;;;;2197559;59;2836;-19
2024/01/09 12:59:52;;;;;;;;;;;;;;;;;;2200177;59;2542;-19
2024/01/09 13:02:22;;;;;;;;;;;;;;;;;;2198495;59;3109;-17
2024/01/09 13:04:53;;;;;;;;;;;;;;;;;;2199244;59;3548;-17
2024/01/09 13:07:24;;;;;;;;;;;;;;;;;;2198687;59;3187;-19
2024/01/09 13:09:55;;;;;;;;;;;;;;;;;;2198951;59;2900;-19
2024/01/09 13:12:26;;;;;;;;;;;;;;;;;;2197928;59;2548;-17
2024/01/09 13:14:56;;;;;;;;;;;;;;;;;;2198970;59;2465;-17
2024/01/09 13:17:26;;;;;;;;;;;;;;;;;;2199447;59;3359;-19
2024/01/09 13:19:56;;;;;;;;;;;;;;;;;;2198536;59;2493;-17
2024/01/09 13:22:27;;;;;;;;;;;;;;;;;;2198863;59;2385;-17
2024/01/09 13:24:57;;;;;;;;;;;;;;;;;;2197688;59;3283;-19
2024/01/09 13:27:28;;;;;;;;;;;;;;;;;;2195998;59;2763;-19
2024/01/09 13:29:58;;;;;;;;;;;;;;;;;;2202782;58;2672;-20
2024/01/09 13:32:28;;;;;;;;;;;;;;;;;;2199431;53;2834;-17
2024/01/09 13:34:59;;;;;;;;;;;;;;;;;;2196609;59;2459;-19
2024/01/09 13:37:30;;;;;;;;;;;;;;;;;;2197375;59;2896;-19
2024/01/09 13:40:02;;;;;;;;;;;;;;;;;;2197159;59;2994;-17
2024/01/09 13:42:33;;;;;;;;;;;;;;;;;;2190334;59;2797;-19
2024/01/09 13:45:04;;;;;;;;;;;;;;;;;;2194707;59;2711;-19
2024/01/09 13:47:35;;;;;;;;;;;;;;;;;;2192408;59;2656;-21
2024/01/09 13:50:06;;;;;;;;;;;;;;;;;;2194100;59;2978;-19
2024/01/09 13:52:37;;;;;;;;;;;;;;;;;;2191833;67;2958;-19
2024/01/09 13:55:09;;;;;;;;;;;;;;;;;;2194523;59;2658;-19
2024/01/09 13:57:42;;;;;;;;;;;;;;;;;;2195948;59;2547;-17
2024/01/09 14:00:13;;;;;;;;;;;;;;;;;;2196893;59;2919;-17
2024/01/09 14:02:47;;;;;;;;;;;;;;;;;;2195473;59;2486;-17
2024/01/09 14:05:19;;;;;;;;;;;;;;;;;;2196133;59;2620;-20
2024/01/09 14:07:49;;;;;;;;;;;;;;;;;;2193873;59;2572;-19
2024/01/09 14:10:21;;;;;;;;;;;;;;;;;;2197325;59;2766;-19
2024/01/09 14:12:52;;;;;;;;;;;;;;;;;;2195786;59;3068;-17
2024/01/09 14:15:22;;;;;;;;;;;;;;;;;;2196893;59;2909;-19
2024/01/09 14:17:52;;;;;;;;;;;;;;;;;;2193375;59;2920;-17
2024/01/09 14:20:24;;;;;;;;;;;;;;;;;;2194433;59;2614;-19
2024/01/09 14:22:54;;;;;;;;;;;;;;;;;;2194596;59;3037;-17
2024/01/09 14:25:28;;;;;;;;;;;;;;;;;;2193123;59;2820;-19
2024/01/09 14:27:58;;;;;;;;;;;;;;;;;;2192827;67;3300;-17
2024/01/09 14:30:28;;;;;;;;;;;;;;;;;;2196510;59;3066;-19
2024/01/09 14:32:59;;;;;;;;;;;;;;;;;;2196715;59;2877;-17
2024/01/09 14:35:29;;;;;;;;;;;;;;;;;;2191993;59;3149;-19
2024/01/09 14:37:59;;;;;;;;;;;;;;;;;;2194645;67;3063;-19
2024/01/09 14:40:30;;;;;;;;;;;;;;;;;;2193331;59;3192;-17
2024/01/09 14:43:02;;;;;;;;;;;;;;;;;;2193173;59;2621;-19
2024/01/09 14:45:34;;;;;;;;;;;;;;;;;;2195454;67;3069;-17
2024/01/09 14:48:04;;;;;;;;;;;;;;;;;;2196073;59;2468;-19
2024/01/09 14:50:35;;;;;;;;;;;;;;;;;;2196802;59;3360;-19
2024/01/09 14:53:05;;;;;;;;;;;;;;;;;;2195346;59;3171;-17
2024/01/09 14:55:36;;;;;;;;;;;;;;;;;;2197428;67;2689;-19
2024/01/09 14:58:07;;;;;;;;;;;;;;;;;;2195938;59;2740;-19
2024/01/09 15:00:37;;;;;;;;;;;;;;;;;;2195123;59;2571;-19
2024/01/09 15:03:07;;;;;;;;;;;;;;;;;;2194149;59;2814;-19
2024/01/09 15:05:39;;;;;;;;;;;;;;;;;;2191694;59;2553;-34
2024/01/09 15:08:09;;;;;;;;;;;;;;;;;;2195459;59;3329;-17
2024/01/09 15:10:40;;;;;;;;;;;;;;;;;;2194319;59;3000;-19
2024/01/09 15:13:12;;;;;;;;;;;;;;;;;;2194627;59;3053;-17
2024/01/09 15:15:43;;;;;;;;;;;;;;;;;;2194344;59;3126;-19
2024/01/09 15:18:14;;;;;;;;;;;;;;;;;;2193852;67;3214;-19
2024/01/09 15:20:44;;;;;;;;;;;;;;;;;;2193892;59;3122;-17
2024/01/09 15:23:15;;;;;;;;;;;;;;;;;;2193979;59;3058;-17
2024/01/09 15:25:45;;;;;;;;;;;;;;;;;;2194478;67;3152;-17
2024/01/09 15:28:19;;;;;;;;;;;;;;;;;;2194600;67;3035;-19
2024/01/09 15:30:49;;;;;;;;;;;;;;;;;;2195210;59;2745;-19
2024/01/09 15:33:20;;;;;;;;;;;;;;;;;;2195741;59;3200;-16
2024/01/09 15:35:50;;;;;;;;;;;;;;;;;;2194469;59;3161;-19
2024/01/09 15:38:21;;;;;;;;;;;;;;;;;;2192757;59;2892;-19
2024/01/09 15:40:51;;;;;;;;;;;;;;;;;;2192390;59;3009;-17
2024/01/09 15:43:22;;;;;;;;;;;;;;;;;;2194618;59;3012;-19
2024/01/09 15:45:53;;;;;;;;;;;;;;;;;;2195079;59;2460;-17
2024/01/09 15:48:24;;;;;;;;;;;;;;;;;;2191640;59;2780;-19
2024/01/09 15:50:55;;;;;;;;;;;;;;;;;;2193577;59;2737;-17
2024/01/09 15:53:25;;;;;;;;;;;;;;;;;;2195172;59;3076;-17
2024/01/09 15:55:56;;;;;;;;;;;;;;;;;;2191169;59;3104;-17
2024/01/09 15:58:26;;;;;;;;;;;;;;;;;;2193828;59;3011;-19
2024/01/09 16:00:57;;;;;;;;;;;;;;;;;;2192778;59;2564;-19
2024/01/09 16:03:31;;;;;;;;;;;;;;;;;;2193552;59;3069;-17
2024/01/09 16:06:04;;;;;;;;;;;;;;;;;;2194167;59;3074;-20
2024/01/09 16:08:36;;;;;;;;;;;;;;;;;;2195445;59;2898;-19
2024/01/09 16:11:07;;;;;;;;;;;;;;;;;;2193602;59;2895;-17
2024/01/09 16:13:38;;;;;;;;;;;;;;;;;;2194887;59;2719;-19
2024/01/09 16:16:23;;;;;;;;;;;;;;;;;;2192228;59;2971;-19
2024/01/09 16:18:53;;;;;;;;;;;;;;;;;;2192523;59;3433;-19
2024/01/09 16:21:23;;;;;;;;;;;;;;;;;;2193596;59;2660;-17
2024/01/09 16:23:54;;;;;;;;;;;;;;;;;;2194983;59;3638;-19
2024/01/09 16:26:25;;;;;;;;;;;;;;;;;;2195010;59;3044;-19
2024/01/09 16:28:55;;;;;;;;;;;;;;;;;;2192924;59;3076;-19
2024/01/09 16:31:26;;;;;;;;;;;;;;;;;;2194079;67;2892;-17
2024/01/09 16:33:56;;;;;;;;;;;;;;;;;;2195190;59;3199;-17
2024/01/09 16:36:27;;;;;;;;;;;;;;;;;;2190269;59;3116;-19
2024/01/09 16:38:58;;;;;;;;;;;;;;;;;;2188873;67;2377;-17
2024/01/09 16:41:28;;;;;;;;;;;;;;;;;;2194084;59;2887;-20
2024/01/09 16:43:58;;;;;;;;;;;;;;;;;;2192989;59;2972;-19
2024/01/09 16:46:29;;;;;;;;;;;;;;;;;;2192567;67;3055;-17
2024/01/09 16:48:59;;;;;;;;;;;;;;;;;;2194727;59;3118;-19
2024/01/09 16:51:30;;;;;;;;;;;;;;;;;;2193283;59;2536;-17
2024/01/09 16:54:00;;;;;;;;;;;;;;;;;;2193423;59;2831;-19
2024/01/09 16:56:31;;;;;;;;;;;;;;;;;;2193845;59;2961;-17
2024/01/09 16:59:02;;;;;;;;;;;;;;;;;;2194631;59;2354;-20
2024/01/09 17:01:32;;;;;;;;;;;;;;;;;;2191660;59;2444;-20
2024/01/09 17:04:02;;;;;;;;;;;;;;;;;;2201361;59;3293;-19
2024/01/09 17:06:33;;;;;;;;;;;;;;;;;;2202340;59;2248;-20
2024/01/09 17:09:05;;;;;;;;;;;;;;;;;;2199229;59;2378;-17
2024/01/09 17:11:39;;;;;;;;;;;;;;;;;;2191449;59;2860;-19
2024/01/09 17:14:10;;;;;;;;;;;;;;;;;;2193841;59;2343;-18
2024/01/09 17:16:44;;;;;;;;;;;;;;;;;;2191544;59;2511;-17
2024/01/09 17:19:17;;;;;;;;;;;;;;;;;;2191671;67;2842;-17
2024/01/09 17:21:48;;;;;;;;;;;;;;;;;;2193310;59;2852;-20
2024/01/09 17:24:18;;;;;;;;;;;;;;;;;;2189701;59;2920;-19
2024/01/09 17:26:48;;;;;;;;;;;;;;;;;;2193077;59;3616;-20
2024/01/09 17:29:19;;;;;;;;;;;;;;;;;;2196925;63;2629;-19